メインページ
METAR-TAF:

METAR-TAF

空港 :

ブリスベン空港

ブリスベン, オーストラリア

緯度: 27-23S, 経度: 153-06E, 海抜: 4m

現時点の気象観測

当レポートは37分前の03:00(UTC)に作成
南東の風 7kt、東/南東からの間で変化する
気温 26°C
湿度 61%
気圧 1015 hPa
視程10km以上
1,500メートル以下は雲なし、積乱雲なし

METAR: YBBN 250300Z 14007KT 110V170 CAVOK 26/18 Q1015 RF00/0/000/0

時間: 13:37 (03:37 UTC)

予報

当レポートは1時間10分前の02:27(UTC)に作成
予報は25日の 03時(UTC)から 26日の 06時(UTC)まで有効
の風 5kt
視程10km以上
高度4000ftの雲はほとんどない
25日の 0400時(UTC)から
の風 10kt
視程10km以上
高度4000ftの雲はほとんどない
25日の 0700時(UTC)から
南/南東の風 10kt
視程10km以上
高度3000ftの雲はほとんどない
高度4000ftの雲は散在している
25日の 1200時(UTC)から
南/南西の風 7kt
視程10km以上
高度2500ftの雲はほとんどない
高度3500ftの雲は散在している
26日の 0200時(UTC)から
南/南東の風 13kt
視程10km以上
高度3000ftの雲は散在している

TAF: YBBN 250227Z 2503/2606 17005KT 9999 FEW040 FM250400 10010KT 9999 FEW040 FM250700 15010KT 9999 FEW030 SCT040 FM251200 20007KT 9999 FEW025 SCT035 FM260200 15013KT 9999 SCT030

4,000以上の空港の気象観測と天気予報(METAR報とTAF報)

利用可能な観測所は地図上に黄色い丸と赤い丸で示す。

丸の上にカーソルを重ねると観測所名を参照できる。

次にクリックすると気象観測と天気予報を参照できる。

マップの切り替え:黒色「×」印の緑ボタンをクリックして拡大、「-」印の緑ボタンをクリックして縮小、緑色の三角印をクリックして隣りの地図に切り替え


METAR-TAF: